Time;durP1;ratioP1;P1;durP2;ratioP2;P2;SDS_P1;SDS_P2;PMS_P1;PMS_P2;Temp;Humidity;BMP_temperature;BMP_pressure;BME280_temperature;BME280_humidity;BME280_pressure;Samples;Min_cycle;Max_cycle;Signal;HPM_P1;HPM_P2
2022/02/18 00:00:17;;;;;;;38.20;4.57;;;;;;;5.40;75.32;98996.22;5032129;28;20037;-55
2022/02/18 00:02:42;;;;;;;20.65;3.40;;;;;;;5.32;75.73;98999.94;5029865;28;20480;-55
2022/02/18 00:05:08;;;;;;;32.60;4.00;;;;;;;5.33;75.77;99001.56;5035361;28;20425;-55
2022/02/18 00:07:33;;;;;;;28.98;4.20;;;;;;;5.32;75.72;98999.94;5040590;28;20029;-57
2022/02/18 00:09:59;;;;;;;31.35;4.07;;;;;;;5.36;75.74;98997.66;5038157;28;20029;-54
2022/02/18 00:12:24;;;;;;;23.65;3.70;;;;;;;5.27;76.23;98994.44;5036683;28;20092;-54
2022/02/18 00:14:49;;;;;;;28.17;3.40;;;;;;;5.25;76.46;98998.34;5030875;28;20033;-55
2022/02/18 00:17:15;;;;;;;29.75;3.95;;;;;;;5.26;76.37;99000.78;5029608;28;20053;-55
2022/02/18 00:19:40;;;;;;;39.30;4.53;;;;;;;5.13;77.29;99003.50;5033974;28;20090;-56
2022/02/18 00:22:06;;;;;;;33.25;4.75;;;;;;;5.15;77.02;99004.13;5040262;28;20463;-57
2022/02/18 00:24:31;;;;;;;33.47;4.90;;;;;;;5.24;76.85;99008.16;5036823;28;20036;-57
2022/02/18 00:26:57;;;;;;;30.73;5.45;;;;;;;5.28;76.88;99008.53;5040439;28;20045;-54
2022/02/18 00:29:22;;;;;;;36.08;4.05;;;;;;;5.24;77.13;99002.00;5030999;28;20083;-53
2022/02/18 00:31:48;;;;;;;22.33;3.65;;;;;;;5.28;77.29;99004.03;5028334;28;20048;-57
2022/02/18 00:34:14;;;;;;;32.90;4.63;;;;;;;5.24;77.34;98994.03;5036699;28;20025;-57
2022/02/18 00:36:39;;;;;;;28.67;4.05;;;;;;;5.24;77.63;98997.53;5037322;28;20551;-56
2022/02/18 00:39:05;;;;;;;41.33;4.43;;;;;;;5.31;77.09;98992.97;5036617;28;20041;-55
2022/02/18 00:41:30;;;;;;;23.70;3.70;;;;;;;5.38;76.80;98992.94;5036273;28;20041;-55
2022/02/18 00:43:55;;;;;;;38.58;5.20;;;;;;;5.33;77.28;98996.25;5030531;28;20053;-58
2022/02/18 00:46:21;;;;;;;27.15;4.53;;;;;;;5.36;76.96;98997.66;5029012;28;20057;-55
2022/02/18 00:48:46;;;;;;;22.55;4.22;;;;;;;5.46;76.40;99005.16;5032483;28;20810;-54
2022/02/18 00:51:12;;;;;;;22.13;3.60;;;;;;;5.54;75.89;99008.38;5043737;28;20487;-54
2022/02/18 00:53:37;;;;;;;34.05;5.32;;;;;;;5.57;75.56;99007.94;5035056;28;20044;-56
2022/02/18 00:56:03;;;;;;;36.38;5.63;;;;;;;5.70;75.21;99007.03;5036005;28;20029;-56
2022/02/18 00:58:28;;;;;;;25.95;3.85;;;;;;;5.86;75.04;99002.22;5047051;28;20517;-56
2022/02/18 01:00:54;;;;;;;33.97;4.03;;;;;;;5.78;75.19;99017.41;5035842;28;20049;-56
2022/02/18 01:03:19;;;;;;;36.90;3.85;;;;;;;5.83;74.66;99025.53;5036727;28;20495;-55
2022/02/18 01:05:46;;;;;;;18.92;3.90;;;;;;;5.76;75.42;99014.13;5037655;28;20048;-55
2022/02/18 01:08:11;;;;;;;31.83;4.00;;;;;;;5.62;76.21;99015.28;5038855;28;20032;-54
2022/02/18 01:10:36;;;;;;;21.80;3.40;;;;;;;5.47;77.15;99006.81;5029831;28;20050;-55
2022/02/18 01:13:02;;;;;;;20.60;3.95;;;;;;;5.32;78.45;99005.25;5033691;28;21415;-56
2022/02/18 01:15:27;;;;;;;30.25;4.60;;;;;;;5.27;78.29;99002.41;5034266;28;20673;-56
2022/02/18 01:17:53;;;;;;;33.42;4.28;;;;;;;5.27;78.81;98990.97;5029509;28;20033;-55
2022/02/18 01:20:19;;;;;;;27.92;4.78;;;;;;;5.22;78.89;98988.13;5035128;28;20075;-56
2022/02/18 01:22:44;;;;;;;33.67;5.00;;;;;;;5.21;78.97;98976.69;5032972;28;20044;-55
2022/02/18 01:25:10;;;;;;;34.70;4.13;;;;;;;5.27;78.67;98975.84;5029062;28;20029;-56
2022/02/18 01:27:36;;;;;;;26.08;3.92;;;;;;;5.36;78.55;98987.81;5029049;28;20025;-54
2022/02/18 01:30:02;;;;;;;27.90;4.13;;;;;;;5.33;78.60;98985.59;5028725;28;20061;-54
2022/02/18 01:32:28;;;;;;;33.17;4.15;;;;;;;5.36;78.25;98971.06;5028413;28;20033;-55
2022/02/18 01:34:53;;;;;;;26.70;4.00;;;;;;;5.48;78.14;98981.84;5028896;28;20388;-56
2022/02/18 01:37:18;;;;;;;32.88;4.97;;;;;;;5.49;78.21;98976.31;5041368;28;20052;-55
2022/02/18 01:39:44;;;;;;;27.13;4.35;;;;;;;5.62;77.27;98983.38;5035203;28;20114;-54
2022/02/18 01:42:09;;;;;;;30.73;3.70;;;;;;;5.69;76.80;98984.16;5043713;28;20044;-56
2022/02/18 01:44:37;;;;;;;23.83;3.67;;;;;;;5.82;76.10;98980.56;5036719;28;20410;-56
2022/02/18 01:47:04;;;;;;;35.42;4.18;;;;;;;5.88;75.82;98970.91;5040508;28;20050;-56
2022/02/18 01:49:29;;;;;;;23.00;3.38;;;;;;;5.93;75.52;98963.06;5031424;28;20044;-56
2022/02/18 01:51:55;;;;;;;27.50;3.67;;;;;;;5.95;75.51;98955.72;5037415;28;20044;-56
2022/02/18 01:54:21;;;;;;;25.33;3.50;;;;;;;5.94;75.25;98959.41;5035099;28;20024;-55
2022/02/18 01:56:46;;;;;;;21.10;3.60;;;;;;;5.95;75.36;98945.09;5035729;28;20052;-55
2022/02/18 01:59:11;;;;;;;34.20;4.22;;;;;;;5.98;75.55;98960.59;5031678;28;20030;-55
2022/02/18 02:01:37;;;;;;;22.67;4.20;;;;;;;5.95;75.47;98948.56;5030690;28;20435;-56
2022/02/18 02:04:02;;;;;;;15.77;4.53;;;;;;;5.99;75.00;98935.63;5033529;28;20017;-55
2022/02/18 02:06:28;;;;;;;21.35;4.20;;;;;;;5.93;75.39;98933.81;5031874;28;20056;-56
2022/02/18 02:08:53;;;;;;;22.85;3.55;;;;;;;5.92;75.47;98924.22;5030050;28;20033;-56
2022/02/18 02:11:19;;;;;;;31.23;5.00;;;;;;;5.70;77.13;98919.28;5032384;28;20060;-56
2022/02/18 02:13:45;;;;;;;15.35;3.60;;;;;;;5.60;78.33;98901.16;5028146;28;20033;-55
2022/02/18 02:16:14;;;;;;;26.27;3.85;;;;;;;5.54;78.91;98917.16;5032331;28;20077;-55
2022/02/18 02:18:39;;;;;;;27.63;4.13;;;;;;;5.53;78.83;98907.56;5033986;28;20033;-55
2022/02/18 02:21:04;;;;;;;33.13;4.28;;;;;;;5.51;78.94;98896.34;5027847;28;20042;-55
2022/02/18 02:23:30;;;;;;;39.50;4.53;;;;;;;5.48;79.23;98897.59;5033483;28;20030;-56
2022/02/18 02:25:55;;;;;;;18.52;3.58;;;;;;;5.55;79.12;98905.50;5032971;28;20269;-55
2022/02/18 02:28:21;;;;;;;32.90;4.00;;;;;;;5.51;79.06;98910.44;5033020;28;20036;-55
2022/02/18 02:30:46;;;;;;;17.80;3.58;;;;;;;5.67;78.14;98913.59;5035902;28;20053;-56
2022/02/18 02:33:12;;;;;;;26.33;3.35;;;;;;;5.72;77.66;98916.41;5033032;28;20060;-55
2022/02/18 02:35:37;;;;;;;25.90;3.58;;;;;;;5.69;78.10;98899.06;5032262;28;20049;-56
2022/02/18 02:38:03;;;;;;;36.90;3.97;;;;;;;5.62;78.15;98893.78;5028516;28;20158;-55
2022/02/18 02:40:29;;;;;;;26.55;4.32;;;;;;;5.56;78.65;98896.50;5029068;28;20053;-56
2022/02/18 02:42:55;;;;;;;31.90;4.07;;;;;;;5.56;78.84;98877.88;5033308;28;20045;-55
2022/02/18 02:45:21;;;;;;;26.65;3.88;;;;;;;5.59;78.72;98872.13;5033637;28;20049;-56
2022/02/18 02:47:46;;;;;;;21.08;3.15;;;;;;;5.63;78.75;98865.34;5028372;28;20040;-55
2022/02/18 02:50:13;;;;;;;35.88;4.55;;;;;;;5.57;79.36;98871.56;5032372;28;20733;-55
2022/02/18 02:52:38;;;;;;;29.90;4.47;;;;;;;5.59;79.60;98850.84;5031146;28;20040;-55
2022/02/18 02:55:05;;;;;;;27.48;3.35;;;;;;;5.58;79.47;98850.06;5034440;28;20040;-56
2022/02/18 02:57:30;;;;;;;25.25;4.28;;;;;;;5.57;79.87;98852.94;5027899;28;20017;-54
2022/02/18 02:59:55;;;;;;;31.25;4.78;;;;;;;5.53;80.39;98857.06;5035673;28;20827;-53
2022/02/18 03:02:21;;;;;;;38.38;4.60;;;;;;;5.61;79.90;98851.47;5029145;28;20042;-55
2022/02/18 03:04:46;;;;;;;39.83;4.72;;;;;;;5.62;79.97;98855.75;5037830;28;20028;-53
2022/02/18 03:07:12;;;;;;;29.20;3.95;;;;;;;5.66;79.67;98862.25;5030503;28;20081;-54
2022/02/18 03:09:37;;;;;;;32.15;3.95;;;;;;;5.71;79.42;98859.75;5031735;28;20432;-55
2022/02/18 03:12:03;;;;;;;42.75;5.40;;;;;;;5.73;79.89;98838.25;5032366;28;20030;-54
2022/02/18 03:14:28;;;;;;;30.98;4.10;;;;;;;5.65;80.22;98839.38;5029793;28;20022;-55
2022/02/18 03:16:55;;;;;;;33.50;4.75;;;;;;;5.65;80.41;98828.72;5027417;28;20037;-55
2022/02/18 03:19:20;;;;;;;33.97;4.38;;;;;;;5.64;80.64;98840.38;5026200;28;20084;-55
2022/02/18 03:21:46;;;;;;;27.25;4.18;;;;;;;5.60;80.86;98832.03;5032275;28;20052;-54
2022/02/18 03:24:11;;;;;;;31.75;4.22;;;;;;;5.60;81.13;98831.22;5032741;28;20029;-55
2022/02/18 03:26:36;;;;;;;43.67;6.78;;;;;;;5.62;81.68;98818.53;5033729;28;20052;-54
2022/02/18 03:29:02;;;;;;;32.83;4.65;;;;;;;5.67;81.03;98804.59;5027365;28;20025;-54
2022/02/18 03:31:27;;;;;;;39.08;4.75;;;;;;;5.77;80.45;98797.72;5026686;28;20046;-54
2022/02/18 03:33:52;;;;;;;29.48;4.63;;;;;;;5.76;80.50;98782.78;5033232;28;20091;-54
2022/02/18 03:36:18;;;;;;;29.55;3.30;;;;;;;5.84;80.08;98786.97;5031057;28;20048;-55
2022/02/18 03:38:43;;;;;;;25.80;3.70;;;;;;;5.78;80.37;98780.72;5027395;28;20033;-54
2022/02/18 03:41:09;;;;;;;27.23;4.35;;;;;;;5.79;80.99;98779.69;5033765;28;20034;-55
2022/02/18 03:43:34;;;;;;;31.35;4.40;;;;;;;5.74;80.98;98771.56;5026828;28;20045;-54
2022/02/18 03:46:00;;;;;;;38.00;4.25;;;;;;;5.85;81.08;98764.69;5026504;28;20049;-56
2022/02/18 03:48:25;;;;;;;35.05;4.75;;;;;;;5.82;80.69;98760.63;5033000;28;20036;-55
2022/02/18 03:50:51;;;;;;;24.25;3.55;;;;;;;5.83;81.21;98748.94;5027358;28;20057;-55
2022/02/18 03:53:16;;;;;;;26.50;4.05;;;;;;;5.92;80.76;98749.47;5031342;28;20044;-55
2022/02/18 03:55:42;;;;;;;33.28;4.68;;;;;;;5.90;80.89;98730.25;5033734;28;20038;-54
2022/02/18 03:58:07;;;;;;;38.60;4.50;;;;;;;6.00;80.83;98727.09;5027447;28;20037;-54
2022/02/18 04:00:33;;;;;;;30.67;4.35;;;;;;;6.00;80.81;98724.44;5026290;28;20052;-54
2022/02/18 04:02:58;;;;;;;38.35;5.07;;;;;;;5.96;80.91;98718.72;5030634;28;20088;-54
2022/02/18 04:05:23;;;;;;;31.73;4.35;;;;;;;5.93;81.27;98718.34;5039291;28;20048;-54
2022/02/18 04:07:49;;;;;;;35.75;4.53;;;;;;;5.91;81.66;98726.53;5034862;28;20048;-55
2022/02/18 04:10:14;;;;;;;35.00;4.32;;;;;;;5.92;81.90;98717.53;5037551;28;20033;-54
2022/02/18 04:12:40;;;;;;;39.75;4.43;;;;;;;5.81;82.19;98716.44;5033999;28;20025;-55
2022/02/18 04:15:06;;;;;;;28.63;5.00;;;;;;;5.77;82.55;98725.91;5030838;28;20399;-55
2022/02/18 04:17:32;;;;;;;35.30;4.90;;;;;;;5.80;82.98;98720.13;5032848;28;20055;-55
2022/02/18 04:19:57;;;;;;;36.72;4.53;;;;;;;5.70;83.36;98714.53;5036076;28;20029;-54
2022/02/18 04:22:23;;;;;;;44.40;4.68;;;;;;;5.65;83.90;98710.94;5032925;28;20052;-53
2022/02/18 04:24:48;;;;;;;46.75;4.80;;;;;;;5.64;84.60;98712.75;5033939;28;20029;-54
2022/02/18 04:27:13;;;;;;;36.35;5.85;;;;;;;5.70;84.46;98701.25;5035567;28;20048;-54
2022/02/18 04:29:39;;;;;;;36.20;5.35;;;;;;;5.77;84.42;98694.00;5042705;28;20030;-56
2022/02/18 04:32:05;;;;;;;37.72;5.18;;;;;;;5.79;84.53;98691.94;5034056;28;20429;-54
2022/02/18 04:34:30;;;;;;;37.63;4.70;;;;;;;5.86;84.44;98685.69;5046519;28;20059;-54
2022/02/18 04:36:56;;;;;;;36.42;5.07;;;;;;;5.89;84.40;98674.59;5029226;28;20045;-53
2022/02/18 04:39:21;;;;;;;44.85;5.40;;;;;;;5.96;84.28;98676.16;5036044;28;20439;-56
2022/02/18 04:41:47;;;;;;;40.72;5.47;;;;;;;6.01;84.29;98672.84;5035397;28;20487;-55
2022/02/18 04:44:14;;;;;;;29.70;4.35;;;;;;;5.97;84.56;98669.81;5034025;28;20184;-57
2022/02/18 04:46:40;;;;;;;27.88;5.20;;;;;;;6.07;84.46;98666.63;5038112;28;20399;-55
2022/02/18 04:49:05;;;;;;;84.95;20.38;;;;;;;6.13;83.98;98660.38;5030879;28;20048;-54
2022/02/18 04:51:30;;;;;;;45.33;5.47;;;;;;;6.19;83.87;98659.50;5029732;28;20067;-55
2022/02/18 04:53:56;;;;;;;60.33;13.05;;;;;;;6.20;83.63;98652.31;5032341;28;20103;-54
2022/02/18 04:56:21;;;;;;;30.17;7.95;;;;;;;6.15;84.41;98646.88;5046495;28;20782;-55
2022/02/18 04:58:47;;;;;;;80.65;24.65;;;;;;;6.15;84.35;98620.25;5046955;28;20275;-54
2022/02/18 05:01:12;;;;;;;37.10;7.57;;;;;;;6.15;84.24;98618.41;5029258;28;20042;-55
2022/02/18 05:03:38;;;;;;;42.88;6.47;;;;;;;6.19;84.34;98618.75;5038532;28;20049;-53
2022/02/18 05:06:04;;;;;;;51.05;6.22;;;;;;;6.19;84.44;98619.56;5037681;28;20483;-54
2022/02/18 05:08:29;;;;;;;50.88;5.88;;;;;;;6.14;84.84;98621.28;5041559;28;20076;-54
2022/02/18 05:10:55;;;;;;;40.97;5.90;;;;;;;6.21;84.60;98606.81;5037798;28;20061;-54
2022/02/18 05:13:20;;;;;;;45.90;5.57;;;;;;;6.20;84.34;98597.25;5034374;28;20037;-53
2022/02/18 05:15:45;;;;;;;36.42;5.28;;;;;;;6.16;84.49;98596.06;5029544;28;20103;-54
2022/02/18 05:18:11;;;;;;;38.88;5.18;;;;;;;6.26;83.94;98593.66;5028118;28;20025;-55
2022/02/18 05:20:36;;;;;;;45.97;5.53;;;;;;;6.37;83.31;98585.94;5035423;28;20465;-54
2022/02/18 05:23:02;;;;;;;42.20;6.05;;;;;;;6.40;83.16;98569.50;5029428;28;20033;-55
2022/02/18 05:25:28;;;;;;;48.30;5.30;;;;;;;6.39;83.14;98563.34;5034080;28;20048;-55
2022/02/18 05:27:54;;;;;;;41.17;4.70;;;;;;;6.44;83.62;98568.78;5032781;28;20033;-56
2022/02/18 05:30:19;;;;;;;42.75;5.50;;;;;;;6.40;83.23;98585.47;5028486;28;20513;-55
2022/02/18 05:32:45;;;;;;;46.58;5.88;;;;;;;6.39;83.87;98584.66;5028005;28;20035;-54
2022/02/18 05:35:11;;;;;;;50.03;5.80;;;;;;;6.34;86.02;98575.72;5038547;28;20021;-55
2022/02/18 05:37:36;;;;;;;31.83;4.45;;;;;;;6.29;85.51;98556.97;5035913;28;20448;-55
2022/02/18 05:40:02;;;;;;;37.95;4.95;;;;;;;6.27;85.49;98559.88;5033472;28;20037;-55
2022/02/18 05:42:27;;;;;;;51.53;5.70;;;;;;;6.28;85.42;98550.03;5032921;28;20099;-53
2022/02/18 05:44:53;;;;;;;44.33;5.30;;;;;;;6.23;85.98;98534.75;5032855;28;20033;-54
2022/02/18 05:47:18;;;;;;;42.08;5.50;;;;;;;6.24;87.17;98521.22;5035934;28;20372;-55
2022/02/18 05:49:44;;;;;;;48.25;6.47;;;;;;;6.24;86.25;98520.41;5037650;28;20090;-55
2022/02/18 05:52:09;;;;;;;36.90;5.55;;;;;;;6.20;86.62;98512.09;5028752;28;20041;-54
2022/02/18 05:54:37;;;;;;;37.63;6.20;;;;;;;6.21;86.31;98496.91;5032967;28;20117;-55
2022/02/18 05:57:03;;;;;;;43.92;5.50;;;;;;;6.24;86.40;98488.47;5037121;28;20052;-55
2022/02/18 05:59:28;;;;;;;48.03;5.45;;;;;;;6.18;87.38;98484.88;5034030;28;20036;-55
2022/02/18 06:01:54;;;;;;;43.40;5.32;;;;;;;6.08;88.06;98465.22;5027691;28;20045;-55
2022/02/18 06:04:19;;;;;;;40.58;5.55;;;;;;;6.07;88.55;98459.13;5032996;28;20025;-55
2022/02/18 06:06:45;;;;;;;32.03;5.25;;;;;;;6.05;89.19;98466.50;5029491;28;20042;-57
2022/02/18 06:09:11;;;;;;;31.45;4.50;;;;;;;6.07;89.23;98458.31;5030585;28;20040;-54
2022/02/18 06:11:36;;;;;;;56.45;6.40;;;;;;;6.00;89.68;98455.75;5038746;28;20140;-56
2022/02/18 06:14:02;;;;;;;33.30;4.43;;;;;;;6.05;89.60;98445.22;5035079;28;20025;-55
2022/02/18 06:16:28;;;;;;;39.92;6.03;;;;;;;6.08;90.13;98439.44;5030563;28;20037;-54
2022/02/18 06:18:53;;;;;;;31.83;5.35;;;;;;;6.03;89.95;98436.66;5031320;28;20356;-55
2022/02/18 06:21:19;;;;;;;39.28;5.57;;;;;;;6.03;90.33;98434.00;5029708;28;20042;-54
2022/02/18 06:23:44;;;;;;;37.13;5.15;;;;;;;6.07;90.08;98424.53;5037735;28;20095;-55
2022/02/18 06:26:10;;;;;;;43.03;6.28;;;;;;;6.05;90.11;98426.59;5028369;28;20045;-55
2022/02/18 06:28:36;;;;;;;54.80;5.80;;;;;;;6.10;89.78;98418.72;5037938;28;20095;-55
2022/02/18 06:31:01;;;;;;;54.00;6.35;;;;;;;6.09;90.05;98409.16;5032724;28;20328;-55
2022/02/18 06:33:27;;;;;;;59.17;9.63;;;;;;;6.16;90.54;98406.34;5039546;28;20086;-56
2022/02/18 06:35:52;;;;;;;41.05;7.00;;;;;;;6.13;89.76;98404.16;5028819;28;20041;-55
2022/02/18 06:38:18;;;;;;;40.78;6.28;;;;;;;6.14;89.94;98401.28;5034332;28;20022;-54
2022/02/18 06:40:43;;;;;;;49.90;10.48;;;;;;;6.15;90.19;98394.91;5034009;28;20061;-55
2022/02/18 06:43:08;;;;;;;47.47;5.38;;;;;;;6.20;89.89;98389.69;5035407;28;20044;-55
2022/02/18 06:45:34;;;;;;;44.42;5.40;;;;;;;6.22;89.75;98386.78;5026183;28;20045;-56
2022/02/18 06:47:59;;;;;;;47.22;6.35;;;;;;;6.25;89.77;98387.13;5031694;28;20040;-54
2022/02/18 06:50:25;;;;;;;45.28;6.78;;;;;;;6.28;89.52;98385.03;5027281;28;20518;-55
2022/02/18 06:52:50;;;;;;;50.53;5.25;;;;;;;6.25;89.77;98376.47;5026417;28;20079;-55
2022/02/18 06:55:16;;;;;;;47.72;5.88;;;;;;;6.32;90.09;98362.25;5039127;28;20052;-55
2022/02/18 06:57:45;;;;;;;35.40;6.28;;;;;;;6.28;89.95;98353.91;5032156;28;20363;-56
2022/02/18 07:00:12;;;;;;;47.97;6.68;;;;;;;6.32;89.86;98356.94;5042320;28;20029;-55
2022/02/18 07:02:40;;;;;;;46.20;5.63;;;;;;;6.33;89.64;98345.22;5028209;28;20033;-55
2022/02/18 07:05:07;;;;;;;37.65;6.95;;;;;;;6.29;89.95;98328.09;5037535;28;20115;-54
2022/02/18 07:07:32;;;;;;;45.05;6.63;;;;;;;6.35;89.52;98332.50;5029779;28;20472;-55
2022/02/18 07:09:58;;;;;;;32.53;4.90;;;;;;;6.38;89.84;98337.34;5030401;28;20030;-55
2022/02/18 07:12:25;;;;;;;37.58;6.10;;;;;;;6.41;90.44;98328.88;5033769;28;20040;-55
2022/02/18 07:14:53;;;;;;;39.72;6.05;;;;;;;6.41;90.97;98320.88;5034906;28;20036;-55
2022/02/18 07:17:19;;;;;;;39.45;5.15;;;;;;;6.38;91.44;98308.06;5026332;28;20037;-55
2022/02/18 07:19:44;;;;;;;40.97;5.45;;;;;;;6.35;92.40;98301.34;5038438;28;20434;-55
2022/02/18 07:22:09;;;;;;;42.92;5.68;;;;;;;6.39;92.95;98301.69;5028959;28;20034;-55
2022/02/18 07:24:35;;;;;;;35.65;4.43;;;;;;;6.35;93.88;98296.03;5026481;28;20037;-55
2022/02/18 07:27:01;;;;;;;27.35;4.97;;;;;;;6.31;94.49;98288.75;5034480;28;20045;-55
2022/02/18 07:29:26;;;;;;;35.70;5.10;;;;;;;6.34;94.87;98288.28;5033445;28;20099;-55
2022/02/18 07:31:52;;;;;;;41.47;5.93;;;;;;;6.34;94.90;98269.66;5030042;28;20412;-55
2022/02/18 07:34:17;;;;;;;48.80;5.78;;;;;;;6.29;95.88;98269.56;5027559;28;20105;-56
2022/02/18 07:36:42;;;;;;;36.97;4.88;;;;;;;6.35;96.38;98263.28;5026522;28;20371;-56
2022/02/18 07:39:08;;;;;;;53.45;6.18;;;;;;;6.30;96.85;98255.22;5026247;28;20387;-55
2022/02/18 07:41:33;;;;;;;50.42;6.20;;;;;;;6.26;97.31;98250.38;5030215;28;20505;-54
2022/02/18 07:43:59;;;;;;;37.03;6.78;;;;;;;6.31;97.79;98256.81;5027355;28;20060;-55
2022/02/18 07:46:24;;;;;;;41.97;6.10;;;;;;;6.28;98.58;98238.69;5026314;28;20045;-55
2022/02/18 07:48:50;;;;;;;41.05;5.72;;;;;;;6.23;99.80;98232.22;5031304;28;20044;-55
2022/02/18 07:51:15;;;;;;;51.35;5.97;;;;;;;6.20;100.00;98222.03;5029767;28;20064;-55
2022/02/18 07:53:41;;;;;;;51.72;6.20;;;;;;;6.11;100.00;98210.16;5030305;28;20034;-55
2022/02/18 07:56:07;;;;;;;32.85;5.78;;;;;;;6.14;100.00;98209.72;5030393;28;20139;-55
2022/02/18 07:58:32;;;;;;;48.15;5.82;;;;;;;6.15;100.00;98213.16;5030494;28;20384;-55
2022/02/18 08:00:58;;;;;;;37.65;6.78;;;;;;;6.15;100.00;98210.50;5033667;28;20037;-56
2022/02/18 08:03:26;;;;;;;40.13;6.15;;;;;;;6.18;100.00;98205.50;5037314;28;20029;-55
2022/02/18 08:05:52;;;;;;;45.25;8.52;;;;;;;6.18;100.00;98213.50;5033648;28;20053;-55
2022/02/18 08:08:20;;;;;;;66.57;8.90;;;;;;;6.09;100.00;98206.97;5036274;28;20067;-54
2022/02/18 08:10:49;;;;;;;54.03;7.18;;;;;;;6.15;100.00;98192.69;5031236;28;20061;-55
2022/02/18 08:13:15;;;;;;;46.35;6.80;;;;;;;6.20;100.00;98192.78;5031186;28;20428;-55
2022/02/18 08:15:40;;;;;;;36.33;6.45;;;;;;;6.23;100.00;98202.13;5034880;28;20052;-53
2022/02/18 08:18:05;;;;;;;36.58;6.75;;;;;;;6.24;100.00;98204.56;5028852;28;20026;-54
2022/02/18 08:20:31;;;;;;;26.40;6.13;;;;;;;6.28;100.00;98201.41;5030290;28;20042;-55
2022/02/18 08:22:57;;;;;;;42.95;6.50;;;;;;;6.33;100.00;98189.00;5031931;28;20032;-55
2022/02/18 08:25:22;;;;;;;42.38;8.02;;;;;;;6.31;100.00;98177.00;5035992;28;20037;-54
2022/02/18 08:27:47;;;;;;;29.25;6.00;;;;;;;6.37;100.00;98170.72;5030580;28;20095;-54
2022/02/18 08:30:13;;;;;;;26.60;5.55;;;;;;;6.45;100.00;98167.66;5035641;28;20137;-54
2022/02/18 08:32:38;;;;;;;29.80;6.55;;;;;;;6.50;100.00;98173.06;5029044;28;20022;-55
2022/02/18 08:35:04;;;;;;;34.97;5.95;;;;;;;6.61;100.00;98160.69;5031095;28;20398;-55
2022/02/18 08:37:30;;;;;;;36.47;6.57;;;;;;;6.70;100.00;98149.41;5031680;28;20036;-54
2022/02/18 08:39:55;;;;;;;30.10;5.53;;;;;;;6.76;100.00;98136.16;5030393;28;20040;-55
2022/02/18 08:42:21;;;;;;;18.92;5.80;;;;;;;6.74;100.00;98138.25;5029247;28;20423;-55
2022/02/18 08:44:46;;;;;;;25.48;4.38;;;;;;;6.80;100.00;98134.63;5030154;28;20834;-55
2022/02/18 08:47:11;;;;;;;20.48;5.60;;;;;;;6.87;100.00;98133.41;5027584;28;20037;-54
2022/02/18 08:49:40;;;;;;;15.73;4.80;;;;;;;6.89;100.00;98125.19;5029962;28;20033;-55
2022/02/18 08:52:06;;;;;;;23.55;5.35;;;;;;;6.98;100.00;98122.91;5031885;28;20038;-54
2022/02/18 08:54:31;;;;;;;24.50;5.38;;;;;;;7.02;100.00;98124.81;5034958;28;20033;-56
2022/02/18 08:56:57;;;;;;;24.50;3.85;;;;;;;7.11;100.00;98101.22;5037236;28;20041;-55
2022/02/18 08:59:23;;;;;;;16.92;4.03;;;;;;;7.28;100.00;98104.63;5018633;28;20463;-55
2022/02/18 09:01:48;;;;;;;18.70;5.00;;;;;;;7.25;100.00;98109.66;5028449;28;20048;-55
2022/02/18 09:04:14;;;;;;;13.77;3.80;;;;;;;7.33;100.00;98086.03;5030113;28;20034;-55
2022/02/18 09:06:39;;;;;;;29.95;5.05;;;;;;;7.51;100.00;98074.25;5029305;28;20546;-55
2022/02/18 09:09:05;;;;;;;17.67;4.10;;;;;;;7.57;100.00;98075.91;5029682;28;20037;-55
2022/02/18 09:11:30;;;;;;;17.52;3.63;;;;;;;7.65;100.00;98068.50;5029508;28;20399;-55
2022/02/18 09:13:55;;;;;;;12.05;3.47;;;;;;;7.76;100.00;98067.53;5029797;28;20033;-54
2022/02/18 09:16:22;;;;;;;12.98;3.92;;;;;;;7.82;100.00;98063.88;5036137;28;20045;-54
2022/02/18 09:18:48;;;;;;;13.68;3.90;;;;;;;7.86;100.00;98070.34;5036252;28;20491;-55
2022/02/18 09:21:13;;;;;;;11.90;3.50;;;;;;;7.95;100.00;98073.31;5028915;28;20042;-55
2022/02/18 09:23:39;;;;;;;11.93;3.35;;;;;;;8.02;100.00;98062.47;5029177;28;20021;-55
2022/02/18 09:26:04;;;;;;;12.07;3.22;;;;;;;8.10;100.00;98061.97;5029085;28;20045;-55
2022/02/18 09:28:30;;;;;;;8.35;3.33;;;;;;;8.13;100.00;98059.59;5028475;28;20025;-55
2022/02/18 09:30:56;;;;;;;12.75;3.00;;;;;;;8.27;100.00;98059.97;5029539;28;20045;-55
2022/02/18 09:33:21;;;;;;;10.30;2.58;;;;;;;8.40;100.00;98053.44;5030171;28;20026;-54
2022/02/18 09:35:47;;;;;;;5.85;2.10;;;;;;;8.60;100.00;98052.75;5031112;28;20110;-55
2022/02/18 09:38:12;;;;;;;10.07;2.50;;;;;;;8.68;100.00;98060.25;5034332;28;20062;-55
2022/02/18 09:40:38;;;;;;;4.32;2.00;;;;;;;8.81;100.00;98046.47;5032654;28;20446;-55
2022/02/18 09:43:04;;;;;;;4.38;2.05;;;;;;;8.86;100.00;98040.31;5033061;28;20489;-55
2022/02/18 09:45:29;;;;;;;4.40;1.75;;;;;;;8.97;100.00;98036.66;5026837;28;20041;-55
2022/02/18 09:47:55;;;;;;;4.55;1.80;;;;;;;9.17;100.00;98035.91;5028178;28;20041;-55
2022/02/18 09:50:20;;;;;;;7.57;2.03;;;;;;;9.32;100.00;98021.00;5031160;28;20188;-54
2022/02/18 09:52:46;;;;;;;3.25;1.70;;;;;;;9.36;100.00;98024.72;5026751;28;20029;-55
2022/02/18 09:55:12;;;;;;;4.95;1.63;;;;;;;9.33;100.00;98018.03;5030542;28;20036;-56
2022/02/18 09:57:37;;;;;;;3.45;1.52;;;;;;;9.34;100.00;98008.19;5026937;28;20106;-55
2022/02/18 10:00:07;;;;;;;3.13;1.50;;;;;;;9.35;100.00;98007.09;5011765;28;20032;-55
2022/02/18 10:02:32;;;;;;;4.57;1.40;;;;;;;9.28;100.00;98004.66;5032366;28;20064;-56
2022/02/18 10:04:58;;;;;;;1.65;1.27;;;;;;;9.32;100.00;97991.59;5024915;28;20326;-55
2022/02/18 10:07:25;;;;;;;1.95;1.20;;;;;;;9.37;100.00;97981.69;5023963;28;20030;-55
2022/02/18 10:09:50;;;;;;;2.15;1.10;;;;;;;9.44;100.00;97970.75;5027723;28;20061;-55
2022/02/18 10:12:16;;;;;;;2.97;1.40;;;;;;;9.59;100.00;97978.78;5026460;28;20506;-57
2022/02/18 10:15:01;;;;;;;1.55;1.20;;;;;;;9.65;100.00;97967.00;5024371;28;20044;-54
2022/02/18 10:17:40;;;;;;;2.38;1.40;;;;;;;9.62;100.00;97964.06;5023086;28;20114;-55
2022/02/18 10:20:15;;;;;;;2.58;1.17;;;;;;;9.65;100.00;97944.81;5029809;28;20484;-55
2022/02/18 10:22:59;;;;;;;2.03;1.42;;;;;;;9.72;100.00;97950.69;5032961;28;20502;-54
2022/02/18 10:25:31;;;;;;;2.45;1.40;;;;;;;9.85;100.00;97933.31;5036229;28;20543;-55
2022/02/18 10:27:57;;;;;;;3.22;1.60;;;;;;;9.85;100.00;97933.31;5028153;28;20706;-54
2022/02/18 10:30:23;;;;;;;2.78;1.25;;;;;;;9.89;99.31;97945.09;5032563;28;20044;-55
2022/02/18 10:32:49;;;;;;;2.08;1.30;;;;;;;9.89;99.58;97963.81;5027096;28;20028;-55
2022/02/18 10:35:17;;;;;;;3.58;1.75;;;;;;;9.85;99.95;97949.34;5028828;28;20022;-55
2022/02/18 10:37:50;;;;;;;1.92;1.40;;;;;;;9.90;99.30;97968.09;5034073;28;20493;-55
2022/02/18 10:40:17;;;;;;;1.10;1.00;;;;;;;10.09;97.42;97952.28;5032064;28;20989;-56
2022/02/18 10:42:43;;;;;;;1.88;1.13;;;;;;;10.31;96.13;97943.97;5042270;28;20047;-56
2022/02/18 10:45:11;;;;;;;1.42;1.10;;;;;;;10.53;93.37;97919.50;5040040;28;20462;-55
2022/02/18 10:47:38;;;;;;;0.90;0.90;;;;;;;10.71;90.87;97926.16;5025640;28;20049;-55
2022/02/18 10:50:27;;;;;;;1.48;1.00;;;;;;;10.92;89.64;97903.53;5049364;28;20111;-55
2022/02/18 10:53:12;;;;;;;2.85;1.40;;;;;;;11.04;88.97;97921.97;5029025;28;20037;-55
2022/02/18 10:55:49;;;;;;;4.13;1.13;;;;;;;10.95;88.39;97907.53;5026773;28;20052;-55
2022/02/18 10:58:30;;;;;;;1.88;1.25;;;;;;;11.11;88.95;97919.78;5028614;28;20379;-55
2022/02/18 11:01:19;;;;;;;2.15;1.33;;;;;;;11.22;88.79;97901.72;5027424;28;20629;-55
2022/02/18 11:03:51;;;;;;;2.25;1.50;;;;;;;11.02;90.95;97913.38;5028808;28;20434;-54
2022/02/18 11:06:33;;;;;;;1.50;1.20;;;;;;;10.88;92.76;97897.09;5029432;28;20045;-54
2022/02/18 11:09:11;;;;;;;1.88;1.35;;;;;;;10.87;92.96;97887.47;5032185;28;20033;-55
2022/02/18 11:11:44;;;;;;;3.28;1.45;;;;;;;11.04;91.66;97880.94;5034482;28;20418;-55
2022/02/18 11:14:12;;;;;;;1.92;1.30;;;;;;;11.25;90.16;97868.19;5031773;28;20021;-55
2022/02/18 11:16:39;;;;;;;1.90;1.00;;;;;;;11.23;87.90;97860.41;5030258;28;20042;-55
2022/02/18 11:19:04;;;;;;;1.77;1.17;;;;;;;11.43;87.71;97857.59;5032948;28;20025;-56
2022/02/18 11:21:30;;;;;;;3.50;1.40;;;;;;;11.29;87.82;97851.25;5031467;28;20119;-55
2022/02/18 11:23:56;;;;;;;4.85;1.92;;;;;;;11.39;88.15;97853.06;5033381;28;20025;-55
2022/02/18 11:26:22;;;;;;;5.25;1.90;;;;;;;11.43;87.94;97862.97;5029110;28;20052;-56